Time;durP1;ratioP1;P1;durP2;ratioP2;P2;SDS_P1;SDS_P2;PMS_P1;PMS_P2;Temp;Humidity;BMP_temperature;BMP_pressure;BME280_temperature;BME280_humidity;BME280_pressure;Samples;Min_cycle;Max_cycle;Signal;HPM_P1;HPM_P2
2023/02/08 00:01:12;;;;;;;204.15;87.30;;;-3.40;99.90;;;;;;5014329;28;20049;-80
2023/02/08 00:03:38;;;;;;;331.30;133.68;;;-3.40;99.90;;;;;;5014120;28;20525;-79
2023/02/08 00:06:05;;;;;;;191.43;79.63;;;-3.40;99.90;;;;;;5013575;28;20018;-80
2023/02/08 00:08:31;;;;;;;178.50;75.35;;;-3.40;99.90;;;;;;5012978;28;20103;-80
2023/02/08 00:10:57;;;;;;;88.07;41.30;;;-3.30;99.90;;;;;;5014496;28;20041;-80
2023/02/08 00:13:23;;;;;;;69.40;33.00;;;-3.40;99.90;;;;;;5015865;28;20048;-80
2023/02/08 00:15:52;;;;;;;248.57;96.07;;;-3.40;99.90;;;;;;5034235;28;20079;-80
2023/02/08 00:18:18;;;;;;;154.88;64.90;;;-3.40;99.90;;;;;;5033961;28;20059;-80
2023/02/08 00:20:44;;;;;;;143.32;59.40;;;-3.30;99.90;;;;;;5016545;28;20033;-79
2023/02/08 00:23:11;;;;;;;123.78;53.90;;;-3.30;99.90;;;;;;5016230;28;20025;-79
2023/02/08 00:25:36;;;;;;;123.63;52.63;;;-3.30;99.90;;;;;;5034093;28;20040;-79
2023/02/08 00:28:02;;;;;;;111.43;46.72;;;-3.30;99.90;;;;;;5016172;28;20026;-81
2023/02/08 00:30:28;;;;;;;102.88;44.05;;;-3.30;99.90;;;;;;5016153;28;20025;-79
2023/02/08 00:32:54;;;;;;;106.30;47.00;;;-3.30;99.90;;;;;;5033653;28;20116;-79
2023/02/08 00:35:19;;;;;;;106.40;45.30;;;-3.30;99.90;;;;;;5016209;28;20414;-79
2023/02/08 00:37:45;;;;;;;89.65;42.20;;;-3.30;99.90;;;;;;5015826;28;20072;-82
2023/02/08 00:40:11;;;;;;;72.45;34.83;;;-3.30;99.90;;;;;;5016066;28;20022;-79
2023/02/08 00:42:37;;;;;;;77.95;33.92;;;-3.30;99.90;;;;;;5015713;28;20033;-82
2023/02/08 00:45:03;;;;;;;62.95;31.15;;;-3.40;99.90;;;;;;5033980;28;20033;-80
2023/02/08 00:47:29;;;;;;;65.57;27.70;;;-3.40;99.90;;;;;;5033447;28;20033;-80
2023/02/08 00:49:54;;;;;;;60.17;27.15;;;-3.40;99.90;;;;;;5015877;28;20025;-80
2023/02/08 00:52:20;;;;;;;52.83;25.52;;;-3.40;99.90;;;;;;5015489;28;20040;-80
2023/02/08 00:54:46;;;;;;;48.40;21.67;;;-3.40;99.90;;;;;;5016214;28;20021;-79
2023/02/08 00:57:13;;;;;;;49.47;23.23;;;-3.40;99.90;;;;;;5015533;28;20025;-81
2023/02/08 00:59:38;;;;;;;41.65;22.42;;;-3.40;99.90;;;;;;5015792;28;20052;-81
2023/02/08 01:02:04;;;;;;;49.25;22.85;;;-3.40;99.90;;;;;;5015451;28;20490;-80
2023/02/08 01:04:29;;;;;;;46.00;22.98;;;-3.40;99.90;;;;;;5015695;28;20017;-81
2023/02/08 01:06:55;;;;;;;50.97;21.90;;;-3.30;99.90;;;;;;5033343;28;20029;-79
2023/02/08 01:09:21;;;;;;;49.35;22.00;;;-3.30;99.90;;;;;;5032937;28;20390;-80
2023/02/08 01:11:47;;;;;;;39.28;20.40;;;-3.30;99.90;;;;;;5033278;28;20068;-80
2023/02/08 01:14:12;;;;;;;41.38;20.02;;;-3.30;99.90;;;;;;5014967;28;20053;-80
2023/02/08 01:16:38;;;;;;;39.05;18.75;;;-3.20;99.90;;;;;;5015570;28;20120;-79
2023/02/08 01:19:04;;;;;;;32.25;17.77;;;-3.20;99.90;;;;;;5015287;28;20079;-80
2023/02/08 01:21:34;;;;;;;38.42;17.75;;;-3.20;99.90;;;;;;5033244;28;20478;-80
2023/02/08 01:24:00;;;;;;;38.80;19.67;;;-3.20;99.90;;;;;;5015225;28;20021;-80
2023/02/08 01:26:26;;;;;;;37.97;18.90;;;-3.30;99.90;;;;;;5015877;28;20037;-80
2023/02/08 01:28:54;;;;;;;38.40;18.30;;;-3.30;99.90;;;;;;5015416;28;20021;-81
2023/02/08 01:31:27;;;;;;;38.22;18.88;;;-3.30;99.90;;;;;;5033386;28;20052;-81
2023/02/08 01:33:54;;;;;;;41.30;19.70;;;-3.40;99.90;;;;;;5015152;28;20029;-81
2023/02/08 01:36:20;;;;;;;34.33;17.17;;;-3.30;99.90;;;;;;5015510;28;20072;-80
2023/02/08 01:38:46;;;;;;;43.13;19.63;;;-3.40;99.90;;;;;;5014940;28;20429;-81
2023/02/08 01:41:21;;;;;;;34.15;17.23;;;-3.40;99.90;;;;;;5015306;28;20029;-80
2023/02/08 01:44:28;;;;;;;39.70;20.48;;;-3.40;99.90;;;;;;5015173;28;20041;-79
2023/02/08 01:46:53;;;;;;;35.33;17.95;;;-3.40;99.90;;;;;;5033061;28;20033;-81
2023/02/08 01:49:34;;;;;;;44.15;20.17;;;-3.40;99.90;;;;;;5014936;28;20128;-80
2023/02/08 01:52:15;;;;;;;45.05;20.00;;;-3.40;99.90;;;;;;5015199;28;20120;-79
2023/02/08 01:54:46;;;;;;;42.50;19.85;;;-3.30;99.90;;;;;;5015096;28;20033;-80
2023/02/08 01:57:12;;;;;;;39.97;19.23;;;-3.30;99.90;;;;;;5033095;28;20021;-81
2023/02/08 01:59:51;;;;;;;43.22;19.60;;;-3.40;99.90;;;;;;5014913;28;20025;-81
2023/02/08 02:02:20;;;;;;;42.15;20.63;;;-3.40;99.90;;;;;;5032337;28;20021;-81
2023/02/08 02:04:47;;;;;;;50.22;20.70;;;-3.40;99.90;;;;;;5014784;28;20030;-81
2023/02/08 02:07:14;;;;;;;32.05;15.32;;;-3.40;99.90;;;;;;5014967;28;20032;-79
2023/02/08 02:09:51;;;;;;;40.83;19.08;;;-3.40;99.90;;;;;;5032610;28;20022;-79
2023/02/08 02:12:17;;;;;;;40.97;18.80;;;-3.40;99.90;;;;;;5032603;28;20087;-80
2023/02/08 02:14:44;;;;;;;40.05;19.08;;;-3.40;99.90;;;;;;5014916;28;20053;-79
2023/02/08 02:17:11;;;;;;;32.95;14.07;;;-3.40;99.90;;;;;;5032997;28;20025;-80
2023/02/08 02:19:56;;;;;;;41.13;18.80;;;-3.40;99.90;;;;;;5032452;28;20436;-78
2023/02/08 02:22:30;;;;;;;41.08;17.95;;;-3.40;99.90;;;;;;5032656;28;20116;-79
2023/02/08 02:25:28;;;;;;;39.15;18.38;;;-3.40;99.90;;;;;;5015454;28;20068;-80
2023/02/08 02:28:31;;;;;;;41.53;20.15;;;-3.40;99.90;;;;;;5018310;28;20132;-79
2023/02/08 02:31:29;;;;;;;;;;;-3.40;99.90;;;;;;5018482;28;20041;-80
2023/02/08 02:34:04;;;;;;;47.55;19.90;;;-3.40;99.90;;;;;;4965418;28;19971;-79
2023/02/08 02:36:38;;;;;;;29.63;13.35;;;-3.40;99.90;;;;;;5018479;28;20061;-79
2023/02/08 02:39:26;;;;;;;41.53;19.02;;;-3.40;99.90;;;;;;5035930;28;20025;-79
2023/02/08 02:45:18;;;;;;;38.35;17.40;;;-3.40;99.90;;;;;;5035788;28;20087;-79
2023/02/08 02:47:57;;;;;;;41.97;19.25;;;-3.40;99.90;;;;;;4997171;28;20029;-79
2023/02/08 02:50:35;;;;;;;33.90;16.60;;;-3.40;99.90;;;;;;5036029;28;20502;-79
2023/02/08 02:53:39;;;;;;;34.58;17.02;;;-3.30;99.90;;;;;;5017839;28;20125;-78
2023/02/08 02:56:10;;;;;;;41.25;19.52;;;-3.30;99.90;;;;;;5018222;28;20052;-79
2023/02/08 02:58:38;;;;;;;40.97;17.98;;;-3.40;99.90;;;;;;5017795;28;20033;-79
2023/02/08 03:01:04;;;;;;;42.38;22.55;;;-3.40;99.90;;;;;;5017932;28;20033;-79
2023/02/08 03:03:33;;;;;;;39.17;19.55;;;-3.40;99.90;;;;;;5034225;28;20025;-79
2023/02/08 03:06:27;;;;;;;42.45;21.20;;;-3.40;99.90;;;;;;5015941;28;20026;-79
2023/02/08 03:09:01;;;;;;;40.70;19.48;;;-3.30;99.90;;;;;;5014780;28;20032;-78
2023/02/08 03:12:02;;;;;;;39.47;16.05;;;-3.40;99.90;;;;;;5024421;28;20109;-79
2023/02/08 03:14:28;;;;;;;48.47;22.02;;;-3.40;99.90;;;;;;5017558;28;20061;-78
2023/02/08 03:17:07;;;;;;;42.92;19.75;;;-3.40;99.90;;;;;;5017230;28;20442;-82
2023/02/08 03:19:46;;;;;;;44.63;20.45;;;-3.40;99.90;;;;;;5017883;28;20112;-82
2023/02/08 03:22:29;;;;;;;39.33;20.48;;;-3.40;99.90;;;;;;5016917;28;20032;-83
2023/02/08 03:25:01;;;;;;;45.53;21.88;;;-3.40;99.90;;;;;;5034916;28;20021;-82
2023/02/08 03:27:46;;;;;;;49.38;21.85;;;-3.40;99.90;;;;;;5035054;28;20041;-80
2023/02/08 03:30:17;;;;;;;46.22;21.50;;;-3.40;99.90;;;;;;5035389;28;20079;-80
2023/02/08 03:33:14;;;;;;;40.08;18.20;;;-3.40;99.90;;;;;;5035057;28;20108;-80
2023/02/08 03:35:52;;;;;;;45.55;22.38;;;-3.40;99.90;;;;;;5034420;28;20045;-81
2023/02/08 03:38:26;;;;;;;44.22;20.90;;;-3.40;99.90;;;;;;5034866;28;20025;-80
2023/02/08 03:40:54;;;;;;;42.78;21.08;;;-3.40;99.90;;;;;;5017595;28;20022;-80
2023/02/08 03:43:36;;;;;;;42.78;20.70;;;-3.40;99.90;;;;;;5017063;28;20560;-81
2023/02/08 03:46:27;;;;;;;50.40;22.20;;;-3.40;99.90;;;;;;5017088;28;20018;-81
2023/02/08 03:49:01;;;;;;;55.38;22.25;;;-3.40;99.90;;;;;;5016681;28;20022;-80
2023/02/08 03:51:29;;;;;;;49.38;20.23;;;-3.40;99.90;;;;;;5017359;28;20129;-81
2023/02/08 03:53:59;;;;;;;50.05;23.33;;;-3.30;99.90;;;;;;5034375;28;20033;-81
2023/02/08 03:56:44;;;;;;;49.95;23.15;;;-3.30;99.90;;;;;;5017156;28;20017;-81
2023/02/08 03:59:32;;;;;;;52.10;24.63;;;-3.30;99.90;;;;;;5034301;28;20381;-80
2023/02/08 04:02:00;;;;;;;60.08;24.60;;;-3.30;99.90;;;;;;5034541;28;20022;-80
2023/02/08 04:04:31;;;;;;;52.78;25.05;;;-3.20;99.90;;;;;;5016529;28;20399;-81
2023/02/08 04:06:57;;;;;;;58.88;25.77;;;-3.20;99.90;;;;;;5016726;28;20025;-81
2023/02/08 04:09:23;;;;;;;61.17;27.15;;;-3.30;99.90;;;;;;5016564;28;20032;-81
2023/02/08 04:11:48;;;;;;;56.50;25.63;;;-3.20;99.90;;;;;;5016624;28;20044;-79
2023/02/08 04:14:14;;;;;;;58.55;27.75;;;-3.20;99.90;;;;;;5016190;28;20136;-81
2023/02/08 04:16:39;;;;;;;55.45;26.55;;;-3.20;99.90;;;;;;5016445;28;20018;-79
2023/02/08 04:19:05;;;;;;;61.17;25.80;;;-3.20;99.90;;;;;;5033971;28;20498;-80
2023/02/08 04:21:31;;;;;;;66.35;25.92;;;-3.20;99.90;;;;;;5034324;28;20386;-80
2023/02/08 04:23:57;;;;;;;49.42;24.80;;;-3.30;99.90;;;;;;5016152;28;20025;-80
2023/02/08 04:26:22;;;;;;;63.00;26.92;;;-3.30;99.90;;;;;;5034078;28;20021;-81
2023/02/08 04:28:48;;;;;;;58.03;26.33;;;-3.20;99.90;;;;;;5033729;28;20041;-79
2023/02/08 04:31:13;;;;;;;72.80;30.00;;;-3.20;99.90;;;;;;5033998;28;20025;-81
2023/02/08 04:33:39;;;;;;;55.00;26.35;;;-3.20;99.90;;;;;;5015765;28;20042;-80
2023/02/08 04:36:06;;;;;;;62.88;26.92;;;-3.20;99.90;;;;;;5016754;28;20498;-81
2023/02/08 04:38:31;;;;;;;65.55;28.67;;;-3.20;99.90;;;;;;5033483;28;20083;-81
2023/02/08 04:40:57;;;;;;;61.63;27.67;;;-3.20;99.90;;;;;;5016208;28;20052;-80
2023/02/08 04:43:22;;;;;;;57.22;25.63;;;-3.20;99.90;;;;;;5033586;28;20032;-81
2023/02/08 04:45:51;;;;;;;64.90;29.63;;;-3.30;99.90;;;;;;5015965;28;20056;-80
2023/02/08 04:48:18;;;;;;;56.03;25.05;;;-3.30;99.90;;;;;;5033369;28;20099;-80
2023/02/08 04:50:43;;;;;;;62.63;28.83;;;-3.20;99.90;;;;;;5015978;28;20032;-80
2023/02/08 04:53:09;;;;;;;64.18;28.40;;;-3.20;99.90;;;;;;5033255;28;20037;-80
2023/02/08 04:55:34;;;;;;;67.43;28.38;;;-3.20;99.90;;;;;;5015963;28;20022;-80
2023/02/08 04:58:00;;;;;;;66.97;28.17;;;-3.20;99.90;;;;;;5015841;28;20049;-82
2023/02/08 05:00:27;;;;;;;70.18;29.30;;;-3.20;99.90;;;;;;5016033;28;20021;-80
2023/02/08 05:02:57;;;;;;;59.10;27.10;;;-3.30;99.90;;;;;;5001627;28;20494;-79
2023/02/08 05:05:26;;;;;;;62.10;27.75;;;-3.20;99.90;;;;;;4996091;28;20022;-80
2023/02/08 05:07:52;;;;;;;60.67;27.95;;;-3.30;99.90;;;;;;4996048;28;20076;-79
2023/02/08 05:10:18;;;;;;;72.97;29.77;;;-3.30;99.90;;;;;;4995999;28;20471;-81
2023/02/08 05:12:44;;;;;;;64.05;27.98;;;-3.30;99.90;;;;;;5013479;28;20034;-81
2023/02/08 05:15:10;;;;;;;60.78;28.13;;;-3.20;99.90;;;;;;4995878;28;20487;-81
2023/02/08 05:17:37;;;;;;;67.82;27.95;;;-3.20;99.90;;;;;;4996489;28;20532;-81
2023/02/08 05:20:03;;;;;;;63.03;28.05;;;-3.20;99.90;;;;;;4995923;28;20475;-80
2023/02/08 05:22:29;;;;;;;60.70;27.30;;;-3.20;99.90;;;;;;4995896;28;20030;-79
2023/02/08 05:24:54;;;;;;;61.50;27.63;;;-3.20;99.90;;;;;;5013464;28;20021;-82
2023/02/08 05:27:21;;;;;;;61.85;27.52;;;-3.20;99.90;;;;;;4996262;28;20026;-80
2023/02/08 05:29:46;;;;;;;56.28;25.30;;;-3.20;99.90;;;;;;5013493;28;20522;-79
2023/02/08 05:32:12;;;;;;;64.40;28.02;;;-3.20;99.90;;;;;;4995386;28;20042;-81
2023/02/08 05:34:38;;;;;;;62.38;26.40;;;-3.20;99.90;;;;;;5013739;28;20018;-80
2023/02/08 05:37:03;;;;;;;58.22;29.70;;;-3.20;99.90;;;;;;4995988;28;20510;-81
2023/02/08 05:39:29;;;;;;;63.30;29.73;;;-3.20;99.90;;;;;;4995773;28;20475;-81
2023/02/08 05:41:55;;;;;;;64.53;24.85;;;-3.20;99.90;;;;;;4995773;28;20030;-81
2023/02/08 05:44:20;;;;;;;60.33;25.92;;;-3.20;99.90;;;;;;5013474;28;20463;-79
2023/02/08 05:46:46;;;;;;;61.50;26.45;;;-3.20;99.90;;;;;;4995643;28;20030;-80
2023/02/08 05:49:11;;;;;;;65.20;28.90;;;-3.20;99.90;;;;;;5013231;28;20056;-81
2023/02/08 05:51:37;;;;;;;57.15;25.73;;;-3.20;99.90;;;;;;4995650;28;20445;-80
2023/02/08 05:54:03;;;;;;;60.20;25.52;;;-3.20;99.90;;;;;;5013195;28;20025;-80
2023/02/08 05:56:29;;;;;;;54.80;24.52;;;-3.20;99.90;;;;;;4995833;28;20025;-82
2023/02/08 05:58:54;;;;;;;63.00;27.52;;;-3.10;99.90;;;;;;5013423;28;20353;-79
2023/02/08 06:01:20;;;;;;;70.65;28.40;;;-3.10;99.90;;;;;;5016103;28;20026;-79
2023/02/08 06:03:46;;;;;;;57.60;25.17;;;-3.20;99.90;;;;;;4999248;28;20010;-82
2023/02/08 06:06:12;;;;;;;60.35;27.30;;;-3.10;99.90;;;;;;4999467;28;20483;-79
2023/02/08 06:08:38;;;;;;;73.25;29.27;;;-3.10;99.90;;;;;;4999606;28;20018;-79
2023/02/08 06:11:05;;;;;;;61.05;27.48;;;-3.10;99.90;;;;;;4999824;28;20422;-82
2023/02/08 06:13:30;;;;;;;64.47;25.30;;;-3.10;99.90;;;;;;5016595;28;20092;-81
2023/02/08 06:15:56;;;;;;;59.03;25.95;;;-3.10;99.90;;;;;;4999206;28;20467;-79
2023/02/08 06:18:22;;;;;;;55.50;25.02;;;-3.10;99.90;;;;;;4985385;28;20050;-80
2023/02/08 06:20:50;;;;;;;67.22;27.30;;;-3.10;99.90;;;;;;4998915;28;20026;-82
2023/02/08 06:23:16;;;;;;;66.13;32.58;;;-3.00;99.90;;;;;;4998893;28;20026;-80
2023/02/08 06:25:42;;;;;;;57.17;28.05;;;-3.10;99.90;;;;;;5016634;28;20018;-79
2023/02/08 06:28:09;;;;;;;79.05;40.05;;;-3.00;99.90;;;;;;4998964;28;20511;-80
2023/02/08 06:30:35;;;;;;;100.70;48.42;;;-3.00;99.90;;;;;;4998102;28;20033;-81
2023/02/08 06:33:01;;;;;;;122.20;60.28;;;-3.00;99.90;;;;;;5016246;28;20037;-78
2023/02/08 06:35:26;;;;;;;196.68;97.50;;;-3.00;99.90;;;;;;5016300;28;20475;-81
2023/02/08 06:37:53;;;;;;;181.10;86.50;;;-3.00;99.90;;;;;;5016224;28;20075;-78
2023/02/08 06:40:19;;;;;;;138.30;65.68;;;-3.00;99.90;;;;;;4998604;28;20475;-80
2023/02/08 06:42:46;;;;;;;148.32;67.70;;;-3.00;99.90;;;;;;5016121;28;20104;-78
2023/02/08 06:45:12;;;;;;;285.05;127.00;;;-2.90;99.90;;;;;;4997924;28;20041;-81
2023/02/08 06:47:37;;;;;;;367.02;147.27;;;-2.90;99.90;;;;;;4997993;28;20026;-78
2023/02/08 06:50:03;;;;;;;287.10;111.03;;;-2.90;99.90;;;;;;5013735;28;20038;-79
2023/02/08 06:52:28;;;;;;;315.73;115.57;;;-2.90;99.90;;;;;;4995966;28;20076;-79
2023/02/08 06:54:54;;;;;;;163.00;65.22;;;-2.80;99.90;;;;;;5009091;28;20091;-79
2023/02/08 06:57:20;;;;;;;247.13;90.75;;;-2.80;99.90;;;;;;5024687;28;20026;-78
2023/02/08 06:59:45;;;;;;;329.38;104.28;;;-2.80;99.90;;;;;;5013894;28;20056;-78
2023/02/08 07:02:19;;;;;;;214.43;71.95;;;-2.80;99.90;;;;;;5013848;28;20442;-78
2023/02/08 07:04:45;;;;;;;100.30;38.13;;;-2.70;99.90;;;;;;5015561;28;20041;-81
2023/02/08 07:07:11;;;;;;;85.70;36.95;;;-2.70;99.90;;;;;;4993898;28;20479;-78
2023/02/08 07:09:38;;;;;;;90.03;37.78;;;-2.70;99.90;;;;;;4987730;28;20064;-79
2023/02/08 07:12:04;;;;;;;334.88;107.72;;;-2.60;99.90;;;;;;5002243;28;20037;-78
2023/02/08 07:14:35;;;;;;;203.50;71.20;;;-2.60;99.90;;;;;;5010376;28;20049;-78
2023/02/08 07:17:01;;;;;;;194.60;66.80;;;-2.60;99.90;;;;;;5005043;28;20034;-78
2023/02/08 07:19:28;;;;;;;231.82;76.22;;;-2.50;99.90;;;;;;5006603;28;20112;-78
2023/02/08 07:21:54;;;;;;;144.93;51.45;;;-2.50;99.90;;;;;;4984957;28;20475;-79
2023/02/08 07:24:20;;;;;;;163.85;57.70;;;-2.40;99.90;;;;;;4988106;28;20109;-78
2023/02/08 07:26:45;;;;;;;144.68;54.53;;;-2.30;99.90;;;;;;4988535;28;20125;-79
2023/02/08 07:29:11;;;;;;;232.80;77.40;;;-2.20;99.90;;;;;;5002457;28;20097;-78
2023/02/08 07:31:37;;;;;;;139.30;52.92;;;-2.10;99.90;;;;;;5004729;28;20381;-79
2023/02/08 07:34:03;;;;;;;211.05;62.92;;;-2.00;99.90;;;;;;4985455;28;20033;-79
2023/02/08 07:36:28;;;;;;;103.00;38.35;;;-1.90;99.90;;;;;;5004196;28;20039;-78
2023/02/08 07:38:54;;;;;;;110.40;40.88;;;-1.80;99.90;;;;;;4990550;28;20383;-79
2023/02/08 07:41:19;;;;;;;159.48;59.38;;;-1.80;99.90;;;;;;4996020;28;20046;-81
2023/02/08 07:43:45;;;;;;;255.13;91.43;;;-1.80;99.90;;;;;;4996489;28;20548;-81
2023/02/08 07:46:12;;;;;;;235.55;92.90;;;-1.80;99.90;;;;;;4996457;28;20041;-81
2023/02/08 07:48:37;;;;;;;165.25;57.45;;;-1.90;99.90;;;;;;5013447;28;20026;-78
2023/02/08 07:51:03;;;;;;;92.05;34.30;;;-2.00;99.90;;;;;;5013998;28;20407;-78
2023/02/08 07:53:29;;;;;;;69.00;23.65;;;-2.00;99.90;;;;;;5013790;28;20499;-79
2023/02/08 07:55:55;;;;;;;40.33;19.85;;;-1.90;99.90;;;;;;5022042;28;20073;-81
2023/02/08 07:58:22;;;;;;;72.35;24.92;;;-1.90;99.90;;;;;;5013953;28;20479;-79
2023/02/08 08:00:47;;;;;;;54.63;24.83;;;-1.60;99.90;;;;;;5007213;28;20142;-80
2023/02/08 08:03:13;;;;;;;53.75;25.13;;;-1.50;99.90;;;;;;4984954;28;20490;-80
2023/02/08 08:05:40;;;;;;;54.22;25.83;;;-1.60;99.90;;;;;;4986830;28;20024;-80
2023/02/08 08:08:07;;;;;;;89.45;38.63;;;-1.70;99.90;;;;;;5013130;28;20033;-80
2023/02/08 08:10:32;;;;;;;56.30;24.38;;;-1.80;99.90;;;;;;4995390;28;20555;-81
2023/02/08 08:12:58;;;;;;;96.20;34.25;;;-1.80;99.90;;;;;;4995298;28;20253;-79
2023/02/08 08:15:24;;;;;;;69.25;28.50;;;-1.80;99.90;;;;;;4966602;28;20050;-80
2023/02/08 08:17:49;;;;;;;56.25;20.90;;;-1.90;99.90;;;;;;4977230;28;20022;-80
2023/02/08 08:20:15;;;;;;;30.98;14.95;;;-1.90;99.90;;;;;;4988285;28;20496;-79
2023/02/08 08:22:41;;;;;;;41.45;17.83;;;-1.80;99.90;;;;;;4995722;28;20025;-79
2023/02/08 08:25:07;;;;;;;69.43;28.48;;;-1.80;99.90;;;;;;4996125;28;20088;-81
2023/02/08 08:27:33;;;;;;;81.82;36.25;;;-1.80;99.90;;;;;;4995303;28;20033;-80
2023/02/08 08:30:00;;;;;;;36.78;18.88;;;-1.70;99.90;;;;;;4996409;28;20017;-79
2023/02/08 08:32:25;;;;;;;51.42;23.73;;;-1.40;99.90;;;;;;4996359;28;20030;-79
2023/02/08 08:34:51;;;;;;;52.67;22.27;;;-1.20;99.90;;;;;;5012874;28;20026;-81
2023/02/08 08:37:16;;;;;;;44.78;18.92;;;-1.00;99.90;;;;;;4993359;28;20376;-81
2023/02/08 08:39:42;;;;;;;42.95;19.50;;;-1.10;99.90;;;;;;5010960;28;20122;-80
2023/02/08 08:42:08;;;;;;;28.95;14.00;;;-1.20;99.90;;;;;;4993197;28;20022;-81
2023/02/08 08:44:33;;;;;;;39.80;16.27;;;-1.40;99.90;;;;;;5010253;28;20037;-79
2023/02/08 08:46:59;;;;;;;47.40;20.77;;;-1.30;99.90;;;;;;4992956;28;20164;-81
2023/02/08 08:49:26;;;;;;;27.27;15.18;;;-1.30;99.90;;;;;;5010525;28;20567;-81
2023/02/08 08:51:52;;;;;;;70.90;33.22;;;-1.40;99.90;;;;;;4995435;28;20030;-81
2023/02/08 08:54:18;;;;;;;47.20;25.33;;;-1.40;99.90;;;;;;4996079;28;20020;-80
2023/02/08 08:56:44;;;;;;;32.97;16.17;;;-1.40;99.90;;;;;;4995934;28;20022;-81
2023/02/08 08:59:10;;;;;;;39.88;15.25;;;-1.40;99.90;;;;;;4996019;28;20033;-80
2023/02/08 09:01:35;;;;;;;34.38;14.13;;;-1.30;99.90;;;;;;5013692;28;20029;-80
2023/02/08 09:04:01;;;;;;;32.90;14.27;;;-1.30;99.90;;;;;;4995912;28;20026;-79
2023/02/08 09:06:27;;;;;;;38.08;15.90;;;-1.30;99.90;;;;;;5013632;28;20402;-80
2023/02/08 09:08:52;;;;;;;34.53;16.15;;;-1.30;99.90;;;;;;4995779;28;20029;-79
2023/02/08 09:11:18;;;;;;;37.63;19.15;;;-1.20;99.90;;;;;;5013487;28;20037;-81
2023/02/08 09:13:44;;;;;;;25.33;14.07;;;-1.20;99.90;;;;;;4995384;28;20077;-80
2023/02/08 09:16:15;;;;;;;25.00;14.98;;;-1.10;99.90;;;;;;4995693;28;20060;-80
2023/02/08 09:18:42;;;;;;;31.10;15.40;;;-1.00;99.90;;;;;;5013223;28;20543;-80
2023/02/08 09:21:13;;;;;;;23.58;13.90;;;-0.90;99.90;;;;;;4995858;28;20419;-80
2023/02/08 09:23:39;;;;;;;31.27;14.60;;;-0.80;99.90;;;;;;5013390;28;20037;-79
2023/02/08 09:26:06;;;;;;;45.45;19.05;;;-0.80;99.90;;;;;;5013461;28;20112;-79
2023/02/08 09:28:32;;;;;;;43.38;19.80;;;-0.80;99.90;;;;;;4995521;28;20032;-79
2023/02/08 09:31:00;;;;;;;140.27;48.65;;;-0.80;99.90;;;;;;5013243;28;20426;-79
2023/02/08 09:33:26;;;;;;;411.95;140.43;;;-0.90;99.90;;;;;;4995656;28;20038;-81
2023/02/08 09:35:52;;;;;;;546.65;193.70;;;-0.90;99.90;;;;;;5020149;28;20418;-79
2023/02/08 09:38:18;;;;;;;276.88;83.75;;;-1.00;99.90;;;;;;5019604;28;20026;-80
2023/02/08 09:40:47;;;;;;;162.68;47.45;;;-1.00;99.90;;;;;;5001962;28;20022;-79
2023/02/08 09:43:21;;;;;;;44.25;17.85;;;-1.00;99.90;;;;;;5019689;28;20380;-80
2023/02/08 09:45:57;;;;;;;46.45;18.33;;;-0.70;99.90;;;;;;5001989;28;20044;-80
2023/02/08 09:48:32;;;;;;;61.58;20.58;;;-0.60;99.90;;;;;;5001882;28;20399;-80
2023/02/08 09:51:06;;;;;;;29.55;14.38;;;-0.50;99.90;;;;;;5002072;28;20030;-80
2023/02/08 09:53:35;;;;;;;35.63;15.23;;;-0.40;99.90;;;;;;5019638;28;20036;-80
2023/02/08 09:56:06;;;;;;;191.18;65.90;;;-0.30;99.90;;;;;;5001913;28;20034;-80
2023/02/08 09:58:44;;;;;;;415.20;126.28;;;-0.40;97.20;;;;;;5001679;28;20110;-79
2023/02/08 10:01:35;;;;;;;293.30;86.80;;;-0.30;96.80;;;;;;5001837;28;20030;-79
2023/02/08 10:04:07;;;;;;;486.67;139.05;;;-0.40;94.20;;;;;;5019500;28;20075;-79
2023/02/08 10:06:33;;;;;;;210.30;59.55;;;-0.20;94.80;;;;;;5001713;28;20028;-81
2023/02/08 10:09:04;;;;;;;145.15;36.97;;;-0.10;93.70;;;;;;5001736;28;20026;-80
2023/02/08 10:11:56;;;;;;;80.10;23.67;;;-0.10;90.90;;;;;;5019526;28;20034;-80
2023/02/08 10:14:38;;;;;;;47.40;16.40;;;-0.10;90.10;;;;;;5019480;28;20068;-80
2023/02/08 10:17:24;;;;;;;37.92;14.40;;;-0.20;88.30;;;;;;4999717;28;20392;-79
2023/02/08 10:19:58;;;;;;;49.92;18.55;;;-0.20;87.60;;;;;;5001124;28;20048;-79
2023/02/08 10:23:03;;;;;;;57.85;19.10;;;-0.20;87.60;;;;;;5019888;28;20030;-80
2023/02/08 10:25:29;;;;;;;183.55;66.50;;;-0.10;88.10;;;;;;5001867;28;20136;-81
2023/02/08 10:28:15;;;;;;;68.22;22.95;;;-0.30;88.10;;;;;;5019598;28;20455;-80
2023/02/08 10:31:12;;;;;;;484.42;154.85;;;-0.30;88.30;;;;;;5002020;28;20030;-80
2023/02/08 10:33:47;;;;;;;224.77;60.28;;;-0.30;89.10;;;;;;4965629;28;20125;-80
2023/02/08 10:36:19;;;;;;;78.82;21.85;;;-0.40;91.70;;;;;;5019644;28;20053;-81
2023/02/08 10:38:48;;;;;;;65.37;21.77;;;-0.30;92.70;;;;;;5001864;28;20022;-80
2023/02/08 10:41:19;;;;;;;38.60;11.73;;;-0.30;89.90;;;;;;5001706;28;20103;-80
2023/02/08 10:43:57;;;;;;;68.32;21.48;;;-0.20;87.20;;;;;;5001845;28;20594;-80
2023/02/08 10:46:37;;;;;;;35.70;13.30;;;-0.10;87.20;;;;;;4999091;28;20098;-80
2023/02/08 10:49:21;;;;;;;36.90;13.50;;;-0.10;86.10;;;;;;4998700;28;20026;-80
2023/02/08 10:51:47;;;;;;;16.90;8.80;;;0.10;86.30;;;;;;5016291;28;20126;-80
2023/02/08 10:54:15;;;;;;;49.97;20.70;;;0.20;85.20;;;;;;4998557;28;20033;-80
2023/02/08 10:56:43;;;;;;;170.10;63.38;;;0.20;82.20;;;;;;5016174;28;20044;-80
2023/02/08 10:59:13;;;;;;;312.33;100.65;;;0.10;81.70;;;;;;5015937;28;20105;-80
2023/02/08 11:01:39;;;;;;;381.55;127.13;;;0.10;79.90;;;;;;4998532;28;20022;-80
2023/02/08 11:04:10;;;;;;;108.53;30.90;;;0.00;79.70;;;;;;4998128;28;20048;-79
2023/02/08 11:06:37;;;;;;;47.42;15.60;;;-0.10;78.30;;;;;;4998415;28;20028;-80
2023/02/08 11:09:05;;;;;;;65.18;20.88;;;-0.20;77.90;;;;;;4998250;28;20029;-80
2023/02/08 11:11:36;;;;;;;49.25;16.10;;;-0.20;78.30;;;;;;4998382;28;20076;-81
2023/02/08 11:14:15;;;;;;;35.17;14.45;;;-0.10;78.50;;;;;;4998145;28;20050;-80
2023/02/08 11:16:42;;;;;;;45.70;16.80;;;0.00;79.70;;;;;;4998312;28;20080;-81
2023/02/08 11:19:22;;;;;;;26.80;11.52;;;0.10;77.80;;;;;;4998067;28;20018;-80
2023/02/08 11:21:50;;;;;;;24.73;9.65;;;0.20;77.20;;;;;;5015758;28;20022;-80
2023/02/08 11:24:34;;;;;;;31.67;13.65;;;0.40;76.80;;;;;;4998085;28;20022;-81
2023/02/08 11:27:01;;;;;;;22.75;12.10;;;0.50;75.10;;;;;;4998252;28;20117;-79
2023/02/08 11:29:29;;;;;;;47.65;18.65;;;0.40;73.50;;;;;;4998003;28;20041;-80
2023/02/08 11:31:58;;;;;;;79.93;32.17;;;0.50;73.90;;;;;;4996443;28;20048;-80
2023/02/08 11:34:32;;;;;;;108.72;39.78;;;0.60;74.50;;;;;;4991146;28;20116;-77
2023/02/08 11:37:25;;;;;;;99.78;34.63;;;0.70;75.50;;;;;;4993977;28;20058;-80
2023/02/08 11:39:59;;;;;;;53.63;17.17;;;0.90;75.80;;;;;;4995308;28;20026;-78
2023/02/08 11:42:39;;;;;;;42.22;13.07;;;1.10;75.30;;;;;;5011849;28;20288;-78
2023/02/08 11:45:05;;;;;;;36.95;14.07;;;1.00;74.80;;;;;;5013437;28;20021;-80
2023/02/08 11:47:36;;;;;;;36.50;15.43;;;0.80;75.60;;;;;;4995143;28;20030;-79
2023/02/08 11:50:06;;;;;;;36.60;15.57;;;0.60;77.10;;;;;;4996201;28;20113;-77
2023/02/08 11:52:40;;;;;;;35.78;14.38;;;0.50;78.80;;;;;;4996194;28;20073;-77
2023/02/08 11:55:13;;;;;;;29.90;13.80;;;0.20;78.20;;;;;;5013616;28;20022;-81
2023/02/08 11:57:50;;;;;;;32.05;15.02;;;0.00;75.40;;;;;;5012387;28;20065;-79
2023/02/08 12:00:22;;;;;;;44.63;20.17;;;-0.10;75.30;;;;;;5013251;28;20427;-79
2023/02/08 12:02:49;;;;;;;37.40;16.95;;;-0.30;76.10;;;;;;4983538;28;20851;-82
2023/02/08 12:05:26;;;;;;;33.65;15.65;;;-0.30;77.10;;;;;;4984625;28;20026;-81
2023/02/08 12:08:02;;;;;;;14.63;8.45;;;-0.30;76.90;;;;;;5004001;28;20033;-80
2023/02/08 12:11:05;;;;;;;21.95;9.63;;;-0.10;76.30;;;;;;4985132;28;20022;-80
2023/02/08 12:13:46;;;;;;;25.23;10.30;;;0.20;76.10;;;;;;4976427;28;20073;-79
2023/02/08 12:16:33;;;;;;;32.60;12.38;;;0.60;76.30;;;;;;4989611;28;20030;-80
2023/02/08 12:19:11;;;;;;;23.20;10.82;;;0.80;74.10;;;;;;4995795;28;20026;-81
2023/02/08 12:21:45;;;;;;;23.92;13.73;;;1.00;73.20;;;;;;4995676;28;20502;-80
2023/02/08 12:24:29;;;;;;;21.35;11.70;;;1.00;75.90;;;;;;5012429;28;20048;-79
2023/02/08 12:27:00;;;;;;;25.95;14.23;;;0.90;76.30;;;;;;5013065;28;20515;-79
2023/02/08 12:29:50;;;;;;;36.20;20.00;;;0.90;77.50;;;;;;5001527;28;20387;-80
2023/02/08 12:32:18;;;;;;;33.90;16.98;;;0.50;77.50;;;;;;5002881;28;20113;-79
2023/02/08 12:35:03;;;;;;;44.15;19.67;;;0.60;78.20;;;;;;4986565;28;20026;-79
2023/02/08 12:40:54;;;;;;;27.58;13.10;;;0.60;78.00;;;;;;5006317;28;20036;-80
2023/02/08 12:43:57;;;;;;;26.25;12.27;;;0.60;77.80;;;;;;4986111;28;20026;-80
2023/02/08 12:46:41;;;;;;;;;;;0.30;76.10;;;;;;4993968;28;20022;-80
2023/02/08 12:49:23;;;;;;;17.45;11.02;;;0.20;75.80;;;;;;4997458;28;19909;-81